sensor_id;sensor_type;location;lat;lon;timestamp;P1;durP1;ratioP1;P2;durP2;ratioP2
16137;SDS011;8174;43.550;5.206;2022-12-10T00:01:12;77.33;;;43.73;;
16137;SDS011;8174;43.550;5.206;2022-12-10T00:03:41;67.20;;;41.03;;
16137;SDS011;8174;43.550;5.206;2022-12-10T00:06:12;85.30;;;45.97;;
16137;SDS011;8174;43.550;5.206;2022-12-10T00:08:46;77.27;;;40.17;;
16137;SDS011;8174;43.550;5.206;2022-12-10T00:11:16;86.27;;;42.67;;
16137;SDS011;8174;43.550;5.206;2022-12-10T00:13:47;68.20;;;40.17;;
16137;SDS011;8174;43.550;5.206;2022-12-10T00:16:17;65.67;;;38.17;;
16137;SDS011;8174;43.550;5.206;2022-12-10T00:18:46;64.27;;;37.33;;
16137;SDS011;8174;43.550;5.206;2022-12-10T00:21:16;75.83;;;40.97;;
16137;SDS011;8174;43.550;5.206;2022-12-10T00:23:44;65.83;;;34.83;;
16137;SDS011;8174;43.550;5.206;2022-12-10T00:26:14;68.57;;;41.23;;
16137;SDS011;8174;43.550;5.206;2022-12-10T00:28:44;66.17;;;36.17;;
16137;SDS011;8174;43.550;5.206;2022-12-10T00:31:18;65.37;;;39.53;;
16137;SDS011;8174;43.550;5.206;2022-12-10T00:33:46;69.37;;;38.57;;
16137;SDS011;8174;43.550;5.206;2022-12-10T00:36:21;62.70;;;36.73;;
16137;SDS011;8174;43.550;5.206;2022-12-10T00:38:50;69.90;;;38.97;;
16137;SDS011;8174;43.550;5.206;2022-12-10T00:41:21;67.90;;;35.70;;
16137;SDS011;8174;43.550;5.206;2022-12-10T00:43:50;66.10;;;36.97;;
16137;SDS011;8174;43.550;5.206;2022-12-10T00:46:20;62.27;;;34.43;;
16137;SDS011;8174;43.550;5.206;2022-12-10T00:48:48;59.67;;;32.87;;
16137;SDS011;8174;43.550;5.206;2022-12-10T00:51:20;48.33;;;26.83;;
16137;SDS011;8174;43.550;5.206;2022-12-10T00:53:49;47.63;;;27.77;;
16137;SDS011;8174;43.550;5.206;2022-12-10T00:56:18;41.90;;;22.53;;
16137;SDS011;8174;43.550;5.206;2022-12-10T00:58:47;42.13;;;22.83;;
16137;SDS011;8174;43.550;5.206;2022-12-10T01:01:16;40.27;;;22.70;;
16137;SDS011;8174;43.550;5.206;2022-12-10T01:03:51;33.70;;;20.57;;
16137;SDS011;8174;43.550;5.206;2022-12-10T01:06:20;33.10;;;18.93;;
16137;SDS011;8174;43.550;5.206;2022-12-10T01:08:49;34.50;;;18.63;;
16137;SDS011;8174;43.550;5.206;2022-12-10T01:11:18;34.07;;;20.30;;
16137;SDS011;8174;43.550;5.206;2022-12-10T01:13:46;32.53;;;20.40;;
16137;SDS011;8174;43.550;5.206;2022-12-10T01:16:16;36.53;;;20.90;;
16137;SDS011;8174;43.550;5.206;2022-12-10T01:18:45;35.57;;;20.33;;
16137;SDS011;8174;43.550;5.206;2022-12-10T01:21:17;36.23;;;21.27;;
16137;SDS011;8174;43.550;5.206;2022-12-10T01:23:45;35.90;;;21.50;;
16137;SDS011;8174;43.550;5.206;2022-12-10T01:26:15;35.67;;;21.40;;
16137;SDS011;8174;43.550;5.206;2022-12-10T01:28:43;34.90;;;21.60;;
16137;SDS011;8174;43.550;5.206;2022-12-10T01:31:13;42.47;;;22.10;;
16137;SDS011;8174;43.550;5.206;2022-12-10T01:33:41;40.90;;;21.53;;
16137;SDS011;8174;43.550;5.206;2022-12-10T01:36:13;39.60;;;21.37;;
16137;SDS011;8174;43.550;5.206;2022-12-10T01:38:44;43.53;;;24.13;;
16137;SDS011;8174;43.550;5.206;2022-12-10T01:41:13;46.80;;;23.90;;
16137;SDS011;8174;43.550;5.206;2022-12-10T01:43:49;48.63;;;23.33;;
16137;SDS011;8174;43.550;5.206;2022-12-10T01:46:17;40.23;;;21.33;;
16137;SDS011;8174;43.550;5.206;2022-12-10T01:48:46;43.10;;;22.13;;
16137;SDS011;8174;43.550;5.206;2022-12-10T01:51:19;48.47;;;22.57;;
16137;SDS011;8174;43.550;5.206;2022-12-10T01:53:49;47.30;;;22.07;;
16137;SDS011;8174;43.550;5.206;2022-12-10T01:56:21;39.77;;;21.43;;
16137;SDS011;8174;43.550;5.206;2022-12-10T01:58:50;49.43;;;23.73;;
16137;SDS011;8174;43.550;5.206;2022-12-10T02:01:21;52.50;;;22.23;;
16137;SDS011;8174;43.550;5.206;2022-12-10T02:03:52;49.90;;;22.20;;
16137;SDS011;8174;43.550;5.206;2022-12-10T02:06:27;59.07;;;23.50;;
16137;SDS011;8174;43.550;5.206;2022-12-10T02:09:08;52.90;;;22.33;;
16137;SDS011;8174;43.550;5.206;2022-12-10T02:11:41;54.83;;;23.30;;
16137;SDS011;8174;43.550;5.206;2022-12-10T02:14:11;55.23;;;23.00;;
16137;SDS011;8174;43.550;5.206;2022-12-10T02:16:40;50.97;;;22.60;;
16137;SDS011;8174;43.550;5.206;2022-12-10T02:19:11;45.27;;;21.40;;
16137;SDS011;8174;43.550;5.206;2022-12-10T02:21:43;49.57;;;23.30;;
16137;SDS011;8174;43.550;5.206;2022-12-10T02:24:15;45.23;;;22.00;;
16137;SDS011;8174;43.550;5.206;2022-12-10T02:26:48;39.53;;;19.30;;
16137;SDS011;8174;43.550;5.206;2022-12-10T02:29:19;41.40;;;17.83;;
16137;SDS011;8174;43.550;5.206;2022-12-10T02:31:51;46.33;;;21.60;;
16137;SDS011;8174;43.550;5.206;2022-12-10T02:34:20;52.50;;;23.47;;
16137;SDS011;8174;43.550;5.206;2022-12-10T02:36:52;49.57;;;24.03;;
16137;SDS011;8174;43.550;5.206;2022-12-10T02:39:25;45.77;;;21.77;;
16137;SDS011;8174;43.550;5.206;2022-12-10T02:41:55;55.83;;;25.27;;
16137;SDS011;8174;43.550;5.206;2022-12-10T02:44:27;55.37;;;25.33;;
16137;SDS011;8174;43.550;5.206;2022-12-10T02:46:57;46.30;;;21.33;;
16137;SDS011;8174;43.550;5.206;2022-12-10T02:49:25;49.73;;;23.43;;
16137;SDS011;8174;43.550;5.206;2022-12-10T02:51:56;48.70;;;23.20;;
16137;SDS011;8174;43.550;5.206;2022-12-10T02:54:39;47.73;;;22.63;;
16137;SDS011;8174;43.550;5.206;2022-12-10T02:57:15;45.83;;;22.47;;
16137;SDS011;8174;43.550;5.206;2022-12-10T02:59:51;45.20;;;23.63;;
16137;SDS011;8174;43.550;5.206;2022-12-10T03:02:27;45.80;;;23.83;;
16137;SDS011;8174;43.550;5.206;2022-12-10T03:05:00;41.20;;;23.10;;
16137;SDS011;8174;43.550;5.206;2022-12-10T03:07:33;43.20;;;22.20;;
16137;SDS011;8174;43.550;5.206;2022-12-10T03:10:03;44.17;;;22.63;;
16137;SDS011;8174;43.550;5.206;2022-12-10T03:12:35;43.27;;;23.23;;
16137;SDS011;8174;43.550;5.206;2022-12-10T03:15:09;40.57;;;22.97;;
16137;SDS011;8174;43.550;5.206;2022-12-10T03:17:38;40.23;;;23.10;;
16137;SDS011;8174;43.550;5.206;2022-12-10T03:20:10;40.33;;;21.17;;
16137;SDS011;8174;43.550;5.206;2022-12-10T03:22:40;35.53;;;21.10;;
16137;SDS011;8174;43.550;5.206;2022-12-10T03:25:10;36.37;;;20.47;;
16137;SDS011;8174;43.550;5.206;2022-12-10T03:27:42;39.67;;;20.60;;
16137;SDS011;8174;43.550;5.206;2022-12-10T03:30:12;41.80;;;22.03;;
16137;SDS011;8174;43.550;5.206;2022-12-10T03:32:41;42.37;;;21.37;;
16137;SDS011;8174;43.550;5.206;2022-12-10T03:35:10;39.23;;;20.03;;
16137;SDS011;8174;43.550;5.206;2022-12-10T03:37:39;38.53;;;20.77;;
16137;SDS011;8174;43.550;5.206;2022-12-10T03:40:08;33.27;;;17.80;;
16137;SDS011;8174;43.550;5.206;2022-12-10T03:42:39;34.30;;;17.93;;
16137;SDS011;8174;43.550;5.206;2022-12-10T03:45:10;34.73;;;18.80;;
16137;SDS011;8174;43.550;5.206;2022-12-10T03:47:40;34.60;;;18.63;;
16137;SDS011;8174;43.550;5.206;2022-12-10T03:50:10;32.37;;;17.27;;
16137;SDS011;8174;43.550;5.206;2022-12-10T03:52:38;36.27;;;18.93;;
16137;SDS011;8174;43.550;5.206;2022-12-10T03:55:10;40.13;;;19.90;;
16137;SDS011;8174;43.550;5.206;2022-12-10T03:57:48;48.63;;;22.43;;
16137;SDS011;8174;43.550;5.206;2022-12-10T04:00:19;50.93;;;24.27;;
16137;SDS011;8174;43.550;5.206;2022-12-10T04:02:49;44.87;;;23.17;;
16137;SDS011;8174;43.550;5.206;2022-12-10T04:05:18;48.10;;;24.13;;
16137;SDS011;8174;43.550;5.206;2022-12-10T04:07:49;51.53;;;23.90;;
16137;SDS011;8174;43.550;5.206;2022-12-10T04:10:19;49.80;;;24.47;;
16137;SDS011;8174;43.550;5.206;2022-12-10T04:12:48;50.50;;;23.47;;
16137;SDS011;8174;43.550;5.206;2022-12-10T04:15:38;47.67;;;22.80;;
16137;SDS011;8174;43.550;5.206;2022-12-10T04:18:25;50.60;;;23.97;;
16137;SDS011;8174;43.550;5.206;2022-12-10T04:20:55;52.50;;;24.20;;
16137;SDS011;8174;43.550;5.206;2022-12-10T04:23:40;49.87;;;24.13;;
16137;SDS011;8174;43.550;5.206;2022-12-10T04:26:25;47.97;;;23.87;;
16137;SDS011;8174;43.550;5.206;2022-12-10T04:29:10;44.90;;;22.73;;
16137;SDS011;8174;43.550;5.206;2022-12-10T04:31:39;46.93;;;22.83;;
16137;SDS011;8174;43.550;5.206;2022-12-10T04:34:08;48.40;;;23.33;;
16137;SDS011;8174;43.550;5.206;2022-12-10T04:36:37;43.57;;;23.73;;
16137;SDS011;8174;43.550;5.206;2022-12-10T04:39:06;40.07;;;22.40;;
16137;SDS011;8174;43.550;5.206;2022-12-10T04:41:37;41.07;;;21.07;;
16137;SDS011;8174;43.550;5.206;2022-12-10T04:44:13;42.10;;;23.00;;
16137;SDS011;8174;43.550;5.206;2022-12-10T04:46:45;43.00;;;22.77;;
16137;SDS011;8174;43.550;5.206;2022-12-10T04:49:14;44.57;;;22.97;;
16137;SDS011;8174;43.550;5.206;2022-12-10T04:51:43;38.93;;;22.27;;
16137;SDS011;8174;43.550;5.206;2022-12-10T04:54:11;40.13;;;22.23;;
16137;SDS011;8174;43.550;5.206;2022-12-10T04:56:40;39.57;;;23.43;;
16137;SDS011;8174;43.550;5.206;2022-12-10T04:59:12;41.87;;;22.60;;
16137;SDS011;8174;43.550;5.206;2022-12-10T05:01:40;40.47;;;23.53;;
16137;SDS011;8174;43.550;5.206;2022-12-10T05:04:09;42.37;;;22.87;;
16137;SDS011;8174;43.550;5.206;2022-12-10T05:06:40;43.63;;;23.43;;
16137;SDS011;8174;43.550;5.206;2022-12-10T05:09:09;45.07;;;24.33;;
16137;SDS011;8174;43.550;5.206;2022-12-10T05:11:39;48.33;;;24.43;;
16137;SDS011;8174;43.550;5.206;2022-12-10T05:14:10;45.73;;;23.47;;
16137;SDS011;8174;43.550;5.206;2022-12-10T05:16:38;48.07;;;25.37;;
16137;SDS011;8174;43.550;5.206;2022-12-10T05:19:07;46.77;;;24.60;;
16137;SDS011;8174;43.550;5.206;2022-12-10T05:21:36;44.20;;;24.40;;
16137;SDS011;8174;43.550;5.206;2022-12-10T05:24:22;39.87;;;22.20;;
16137;SDS011;8174;43.550;5.206;2022-12-10T05:26:53;36.93;;;21.23;;
16137;SDS011;8174;43.550;5.206;2022-12-10T05:29:23;34.23;;;19.90;;
16137;SDS011;8174;43.550;5.206;2022-12-10T05:31:52;35.83;;;20.50;;
16137;SDS011;8174;43.550;5.206;2022-12-10T05:34:20;36.37;;;21.03;;
16137;SDS011;8174;43.550;5.206;2022-12-10T05:36:49;37.93;;;20.97;;
16137;SDS011;8174;43.550;5.206;2022-12-10T05:39:17;34.07;;;20.47;;
16137;SDS011;8174;43.550;5.206;2022-12-10T05:41:47;32.43;;;19.13;;
16137;SDS011;8174;43.550;5.206;2022-12-10T05:44:15;38.00;;;21.87;;
16137;SDS011;8174;43.550;5.206;2022-12-10T05:46:42;33.07;;;20.60;;
16137;SDS011;8174;43.550;5.206;2022-12-10T05:49:11;35.73;;;20.50;;
16137;SDS011;8174;43.550;5.206;2022-12-10T05:51:39;34.57;;;20.83;;
16137;SDS011;8174;43.550;5.206;2022-12-10T05:54:09;33.53;;;19.87;;
16137;SDS011;8174;43.550;5.206;2022-12-10T05:56:38;29.70;;;18.97;;
16137;SDS011;8174;43.550;5.206;2022-12-10T05:59:08;32.27;;;18.50;;
16137;SDS011;8174;43.550;5.206;2022-12-10T06:01:36;32.33;;;18.73;;
16137;SDS011;8174;43.550;5.206;2022-12-10T06:04:04;33.17;;;19.57;;
16137;SDS011;8174;43.550;5.206;2022-12-10T06:06:35;32.53;;;18.83;;
16137;SDS011;8174;43.550;5.206;2022-12-10T06:09:06;31.00;;;19.27;;
16137;SDS011;8174;43.550;5.206;2022-12-10T06:11:39;33.13;;;19.27;;
16137;SDS011;8174;43.550;5.206;2022-12-10T06:14:09;32.53;;;19.83;;
16137;SDS011;8174;43.550;5.206;2022-12-10T06:16:46;32.90;;;18.93;;
16137;SDS011;8174;43.550;5.206;2022-12-10T06:19:14;35.13;;;19.90;;
16137;SDS011;8174;43.550;5.206;2022-12-10T06:21:42;35.37;;;20.37;;
16137;SDS011;8174;43.550;5.206;2022-12-10T06:24:10;34.60;;;19.83;;
16137;SDS011;8174;43.550;5.206;2022-12-10T06:26:38;27.27;;;14.97;;
16137;SDS011;8174;43.550;5.206;2022-12-10T06:29:13;27.90;;;16.70;;
16137;SDS011;8174;43.550;5.206;2022-12-10T06:31:41;26.23;;;15.67;;
16137;SDS011;8174;43.550;5.206;2022-12-10T06:34:09;26.90;;;16.23;;
16137;SDS011;8174;43.550;5.206;2022-12-10T06:36:37;25.27;;;15.90;;
16137;SDS011;8174;43.550;5.206;2022-12-10T06:39:06;26.53;;;16.43;;
16137;SDS011;8174;43.550;5.206;2022-12-10T06:41:35;26.23;;;15.77;;
16137;SDS011;8174;43.550;5.206;2022-12-10T06:44:06;26.67;;;15.13;;
16137;SDS011;8174;43.550;5.206;2022-12-10T06:46:36;25.40;;;15.67;;
16137;SDS011;8174;43.550;5.206;2022-12-10T06:49:06;24.63;;;15.37;;
16137;SDS011;8174;43.550;5.206;2022-12-10T06:51:36;25.13;;;15.67;;
16137;SDS011;8174;43.550;5.206;2022-12-10T06:54:05;23.47;;;14.63;;
16137;SDS011;8174;43.550;5.206;2022-12-10T06:56:33;24.30;;;14.93;;
16137;SDS011;8174;43.550;5.206;2022-12-10T06:59:03;25.17;;;15.27;;
16137;SDS011;8174;43.550;5.206;2022-12-10T07:01:43;28.00;;;15.20;;
16137;SDS011;8174;43.550;5.206;2022-12-10T07:04:20;21.47;;;14.20;;
16137;SDS011;8174;43.550;5.206;2022-12-10T07:06:50;22.93;;;14.17;;
16137;SDS011;8174;43.550;5.206;2022-12-10T07:09:27;27.43;;;14.60;;
16137;SDS011;8174;43.550;5.206;2022-12-10T07:11:55;20.93;;;12.50;;
16137;SDS011;8174;43.550;5.206;2022-12-10T07:14:23;22.70;;;13.63;;
16137;SDS011;8174;43.550;5.206;2022-12-10T07:16:53;21.27;;;12.87;;
16137;SDS011;8174;43.550;5.206;2022-12-10T07:19:23;20.30;;;12.33;;
16137;SDS011;8174;43.550;5.206;2022-12-10T07:21:52;20.63;;;12.43;;
16137;SDS011;8174;43.550;5.206;2022-12-10T07:24:21;21.20;;;13.03;;
16137;SDS011;8174;43.550;5.206;2022-12-10T07:26:50;20.00;;;12.47;;
16137;SDS011;8174;43.550;5.206;2022-12-10T07:29:19;20.07;;;12.43;;
16137;SDS011;8174;43.550;5.206;2022-12-10T07:31:49;21.07;;;12.40;;
16137;SDS011;8174;43.550;5.206;2022-12-10T07:34:31;17.50;;;10.83;;
16137;SDS011;8174;43.550;5.206;2022-12-10T07:36:59;15.90;;;10.27;;
16137;SDS011;8174;43.550;5.206;2022-12-10T07:39:28;14.80;;;10.23;;
16137;SDS011;8174;43.550;5.206;2022-12-10T07:41:55;13.77;;;9.73;;
16137;SDS011;8174;43.550;5.206;2022-12-10T07:44:24;17.67;;;9.47;;
16137;SDS011;8174;43.550;5.206;2022-12-10T07:46:53;12.60;;;9.03;;
16137;SDS011;8174;43.550;5.206;2022-12-10T07:49:22;12.10;;;8.27;;
16137;SDS011;8174;43.550;5.206;2022-12-10T07:51:52;11.87;;;8.13;;
16137;SDS011;8174;43.550;5.206;2022-12-10T07:54:20;12.10;;;8.13;;
16137;SDS011;8174;43.550;5.206;2022-12-10T07:56:51;18.07;;;11.10;;
16137;SDS011;8174;43.550;5.206;2022-12-10T07:59:23;13.53;;;9.17;;
16137;SDS011;8174;43.550;5.206;2022-12-10T08:01:51;10.87;;;7.30;;
16137;SDS011;8174;43.550;5.206;2022-12-10T08:04:20;10.93;;;7.90;;
16137;SDS011;8174;43.550;5.206;2022-12-10T08:06:49;9.63;;;7.03;;
16137;SDS011;8174;43.550;5.206;2022-12-10T08:12:22;8.90;;;6.23;;
16137;SDS011;8174;43.550;5.206;2022-12-10T08:17:55;10.17;;;6.73;;
16137;SDS011;8174;43.550;5.206;2022-12-10T08:20:24;8.73;;;6.10;;
16137;SDS011;8174;43.550;5.206;2022-12-10T08:22:52;9.57;;;6.10;;
16137;SDS011;8174;43.550;5.206;2022-12-10T08:25:20;7.90;;;6.07;;
16137;SDS011;8174;43.550;5.206;2022-12-10T08:27:51;7.37;;;4.90;;
16137;SDS011;8174;43.550;5.206;2022-12-10T08:30:23;7.33;;;5.30;;
16137;SDS011;8174;43.550;5.206;2022-12-10T08:33:15;6.93;;;5.30;;
16137;SDS011;8174;43.550;5.206;2022-12-10T08:35:57;6.33;;;4.63;;
16137;SDS011;8174;43.550;5.206;2022-12-10T08:38:43;7.40;;;5.70;;
16137;SDS011;8174;43.550;5.206;2022-12-10T08:44:16;8.77;;;6.13;;
16137;SDS011;8174;43.550;5.206;2022-12-10T08:46:46;6.67;;;5.40;;
16137;SDS011;8174;43.550;5.206;2022-12-10T08:52:29;7.87;;;6.00;;
16137;SDS011;8174;43.550;5.206;2022-12-10T08:54:58;7.77;;;5.70;;
16137;SDS011;8174;43.550;5.206;2022-12-10T08:57:28;7.60;;;5.67;;
16137;SDS011;8174;43.550;5.206;2022-12-10T08:59:58;7.90;;;6.27;;
16137;SDS011;8174;43.550;5.206;2022-12-10T09:02:26;10.07;;;5.97;;
16137;SDS011;8174;43.550;5.206;2022-12-10T09:04:54;6.30;;;5.50;;
16137;SDS011;8174;43.550;5.206;2022-12-10T09:07:25;7.40;;;6.20;;
16137;SDS011;8174;43.550;5.206;2022-12-10T09:09:54;7.00;;;5.33;;
16137;SDS011;8174;43.550;5.206;2022-12-10T09:12:23;6.93;;;5.43;;
16137;SDS011;8174;43.550;5.206;2022-12-10T09:14:52;6.93;;;5.60;;
16137;SDS011;8174;43.550;5.206;2022-12-10T09:17:22;7.83;;;5.87;;
16137;SDS011;8174;43.550;5.206;2022-12-10T09:19:50;8.23;;;5.53;;
16137;SDS011;8174;43.550;5.206;2022-12-10T09:22:18;7.33;;;5.70;;
16137;SDS011;8174;43.550;5.206;2022-12-10T09:24:47;10.03;;;6.00;;
16137;SDS011;8174;43.550;5.206;2022-12-10T09:27:15;8.97;;;6.40;;
16137;SDS011;8174;43.550;5.206;2022-12-10T09:29:47;7.60;;;5.87;;
16137;SDS011;8174;43.550;5.206;2022-12-10T09:32:15;9.13;;;6.10;;
16137;SDS011;8174;43.550;5.206;2022-12-10T09:34:45;7.80;;;6.33;;
16137;SDS011;8174;43.550;5.206;2022-12-10T09:37:13;9.40;;;6.20;;
16137;SDS011;8174;43.550;5.206;2022-12-10T09:39:41;8.73;;;6.33;;
16137;SDS011;8174;43.550;5.206;2022-12-10T09:42:13;9.97;;;6.80;;
16137;SDS011;8174;43.550;5.206;2022-12-10T09:44:48;8.53;;;5.93;;
16137;SDS011;8174;43.550;5.206;2022-12-10T09:47:19;7.17;;;5.80;;
16137;SDS011;8174;43.550;5.206;2022-12-10T09:49:56;8.40;;;6.03;;
16137;SDS011;8174;43.550;5.206;2022-12-10T09:52:31;9.40;;;6.33;;
16137;SDS011;8174;43.550;5.206;2022-12-10T09:55:00;8.07;;;6.57;;
16137;SDS011;8174;43.550;5.206;2022-12-10T09:57:29;10.60;;;7.20;;
16137;SDS011;8174;43.550;5.206;2022-12-10T10:00:00;10.43;;;7.27;;
16137;SDS011;8174;43.550;5.206;2022-12-10T10:02:30;10.20;;;7.73;;
16137;SDS011;8174;43.550;5.206;2022-12-10T10:05:01;12.13;;;8.43;;
16137;SDS011;8174;43.550;5.206;2022-12-10T10:07:34;11.30;;;8.47;;
16137;SDS011;8174;43.550;5.206;2022-12-10T10:10:05;11.63;;;8.57;;
16137;SDS011;8174;43.550;5.206;2022-12-10T10:12:33;11.17;;;8.03;;
16137;SDS011;8174;43.550;5.206;2022-12-10T10:15:09;11.57;;;8.30;;
16137;SDS011;8174;43.550;5.206;2022-12-10T10:17:37;12.17;;;8.63;;
16137;SDS011;8174;43.550;5.206;2022-12-10T10:20:12;14.03;;;9.23;;
16137;SDS011;8174;43.550;5.206;2022-12-10T10:22:40;12.50;;;9.40;;
16137;SDS011;8174;43.550;5.206;2022-12-10T10:25:14;13.53;;;9.93;;
16137;SDS011;8174;43.550;5.206;2022-12-10T10:27:46;17.07;;;11.07;;
16137;SDS011;8174;43.550;5.206;2022-12-10T10:30:15;12.87;;;9.70;;
16137;SDS011;8174;43.550;5.206;2022-12-10T10:32:45;13.67;;;9.27;;
16137;SDS011;8174;43.550;5.206;2022-12-10T10:35:26;13.73;;;9.40;;
16137;SDS011;8174;43.550;5.206;2022-12-10T10:37:56;13.77;;;9.67;;
16137;SDS011;8174;43.550;5.206;2022-12-10T10:40:26;14.57;;;9.83;;
16137;SDS011;8174;43.550;5.206;2022-12-10T10:42:55;17.33;;;11.13;;
16137;SDS011;8174;43.550;5.206;2022-12-10T10:45:33;14.30;;;11.23;;
16137;SDS011;8174;43.550;5.206;2022-12-10T10:48:04;15.07;;;10.17;;
16137;SDS011;8174;43.550;5.206;2022-12-10T10:50:37;15.70;;;10.67;;
16137;SDS011;8174;43.550;5.206;2022-12-10T10:55:53;16.00;;;11.67;;
16137;SDS011;8174;43.550;5.206;2022-12-10T10:58:22;16.63;;;11.63;;
16137;SDS011;8174;43.550;5.206;2022-12-10T11:00:57;15.67;;;11.70;;
16137;SDS011;8174;43.550;5.206;2022-12-10T11:03:26;17.27;;;12.53;;
16137;SDS011;8174;43.550;5.206;2022-12-10T11:05:58;16.23;;;11.30;;
16137;SDS011;8174;43.550;5.206;2022-12-10T11:08:28;16.80;;;11.70;;
16137;SDS011;8174;43.550;5.206;2022-12-10T11:10:58;16.50;;;11.33;;
16137;SDS011;8174;43.550;5.206;2022-12-10T11:13:28;16.13;;;11.00;;
16137;SDS011;8174;43.550;5.206;2022-12-10T11:15:58;20.20;;;12.70;;
16137;SDS011;8174;43.550;5.206;2022-12-10T11:18:29;14.43;;;10.67;;
16137;SDS011;8174;43.550;5.206;2022-12-10T11:21:01;17.20;;;12.27;;
16137;SDS011;8174;43.550;5.206;2022-12-10T11:23:30;20.90;;;12.20;;
16137;SDS011;8174;43.550;5.206;2022-12-10T11:26:05;17.13;;;11.53;;
16137;SDS011;8174;43.550;5.206;2022-12-10T11:28:38;18.30;;;11.57;;
16137;SDS011;8174;43.550;5.206;2022-12-10T11:31:13;20.90;;;13.53;;
16137;SDS011;8174;43.550;5.206;2022-12-10T11:33:47;19.73;;;12.73;;
16137;SDS011;8174;43.550;5.206;2022-12-10T11:36:25;17.67;;;12.83;;
16137;SDS011;8174;43.550;5.206;2022-12-10T11:39:02;16.57;;;10.93;;
16137;SDS011;8174;43.550;5.206;2022-12-10T11:41:34;20.57;;;12.10;;
16137;SDS011;8174;43.550;5.206;2022-12-10T11:44:10;15.10;;;10.90;;
16137;SDS011;8174;43.550;5.206;2022-12-10T11:46:56;16.47;;;11.10;;
16137;SDS011;8174;43.550;5.206;2022-12-10T11:49:28;14.40;;;10.23;;
16137;SDS011;8174;43.550;5.206;2022-12-10T11:52:00;15.73;;;10.73;;
16137;SDS011;8174;43.550;5.206;2022-12-10T11:54:37;16.50;;;11.17;;
16137;SDS011;8174;43.550;5.206;2022-12-10T11:57:13;16.07;;;10.47;;
16137;SDS011;8174;43.550;5.206;2022-12-10T11:59:51;16.00;;;10.83;;
16137;SDS011;8174;43.550;5.206;2022-12-10T12:05:27;15.30;;;10.57;;
16137;SDS011;8174;43.550;5.206;2022-12-10T12:08:03;14.83;;;9.73;;
16137;SDS011;8174;43.550;5.206;2022-12-10T12:10:41;17.20;;;10.83;;
16137;SDS011;8174;43.550;5.206;2022-12-10T12:13:19;15.47;;;11.23;;
16137;SDS011;8174;43.550;5.206;2022-12-10T12:15:49;13.93;;;9.93;;
16137;SDS011;8174;43.550;5.206;2022-12-10T12:18:20;16.77;;;10.33;;
16137;SDS011;8174;43.550;5.206;2022-12-10T12:20:52;14.30;;;10.00;;
16137;SDS011;8174;43.550;5.206;2022-12-10T12:23:23;15.50;;;10.63;;
16137;SDS011;8174;43.550;5.206;2022-12-10T12:25:55;16.70;;;10.33;;
16137;SDS011;8174;43.550;5.206;2022-12-10T12:28:25;13.07;;;9.23;;
16137;SDS011;8174;43.550;5.206;2022-12-10T12:30:58;14.73;;;10.10;;
16137;SDS011;8174;43.550;5.206;2022-12-10T12:33:32;15.17;;;9.33;;
16137;SDS011;8174;43.550;5.206;2022-12-10T12:36:08;13.77;;;9.40;;
16137;SDS011;8174;43.550;5.206;2022-12-10T12:38:41;14.07;;;9.77;;
16137;SDS011;8174;43.550;5.206;2022-12-10T12:41:15;16.37;;;9.00;;
16137;SDS011;8174;43.550;5.206;2022-12-10T12:43:46;14.70;;;9.07;;
16137;SDS011;8174;43.550;5.206;2022-12-10T12:46:16;12.97;;;8.83;;
16137;SDS011;8174;43.550;5.206;2022-12-10T12:48:48;14.37;;;9.73;;
16137;SDS011;8174;43.550;5.206;2022-12-10T12:51:19;14.17;;;9.73;;
16137;SDS011;8174;43.550;5.206;2022-12-10T12:53:51;13.43;;;9.80;;
16137;SDS011;8174;43.550;5.206;2022-12-10T12:56:21;13.80;;;9.90;;
16137;SDS011;8174;43.550;5.206;2022-12-10T12:58:55;14.57;;;9.40;;
16137;SDS011;8174;43.550;5.206;2022-12-10T13:01:26;12.20;;;8.80;;
16137;SDS011;8174;43.550;5.206;2022-12-10T13:03:59;13.83;;;9.30;;
16137;SDS011;8174;43.550;5.206;2022-12-10T13:06:28;16.23;;;9.63;;
16137;SDS011;8174;43.550;5.206;2022-12-10T13:09:15;14.43;;;9.00;;
16137;SDS011;8174;43.550;5.206;2022-12-10T13:14:53;13.70;;;9.60;;
16137;SDS011;8174;43.550;5.206;2022-12-10T13:17:28;18.70;;;9.53;;
16137;SDS011;8174;43.550;5.206;2022-12-10T13:22:54;12.63;;;8.07;;
16137;SDS011;8174;43.550;5.206;2022-12-10T13:25:37;13.43;;;8.70;;
16137;SDS011;8174;43.550;5.206;2022-12-10T13:28:16;12.70;;;7.77;;
16137;SDS011;8174;43.550;5.206;2022-12-10T13:30:45;14.43;;;9.20;;
16137;SDS011;8174;43.550;5.206;2022-12-10T13:33:43;15.93;;;9.70;;
16137;SDS011;8174;43.550;5.206;2022-12-10T13:36:13;16.27;;;10.13;;
16137;SDS011;8174;43.550;5.206;2022-12-10T13:38:55;18.27;;;10.80;;
16137;SDS011;8174;43.550;5.206;2022-12-10T13:41:24;16.93;;;9.93;;
16137;SDS011;8174;43.550;5.206;2022-12-10T13:44:24;14.80;;;8.60;;
16137;SDS011;8174;43.550;5.206;2022-12-10T13:46:54;17.33;;;10.53;;
16137;SDS011;8174;43.550;5.206;2022-12-10T13:49:24;16.07;;;9.90;;
16137;SDS011;8174;43.550;5.206;2022-12-10T13:51:54;15.30;;;10.37;;
16137;SDS011;8174;43.550;5.206;2022-12-10T13:57:13;15.90;;;10.47;;
16137;SDS011;8174;43.550;5.206;2022-12-10T13:59:46;15.53;;;10.33;;
16137;SDS011;8174;43.550;5.206;2022-12-10T14:05:20;18.83;;;11.97;;
16137;SDS011;8174;43.550;5.206;2022-12-10T14:07:54;16.83;;;10.10;;
16137;SDS011;8174;43.550;5.206;2022-12-10T14:10:26;18.83;;;10.37;;
16137;SDS011;8174;43.550;5.206;2022-12-10T14:13:04;17.13;;;9.53;;
16137;SDS011;8174;43.550;5.206;2022-12-10T14:15:48;18.87;;;10.67;;
16137;SDS011;8174;43.550;5.206;2022-12-10T14:18:19;17.63;;;10.70;;
16137;SDS011;8174;43.550;5.206;2022-12-10T14:20:50;16.77;;;10.97;;
16137;SDS011;8174;43.550;5.206;2022-12-10T14:23:23;17.57;;;10.73;;
16137;SDS011;8174;43.550;5.206;2022-12-10T14:26:04;18.57;;;10.70;;
16137;SDS011;8174;43.550;5.206;2022-12-10T14:28:36;14.73;;;9.67;;
16137;SDS011;8174;43.550;5.206;2022-12-10T14:31:21;16.60;;;10.77;;
16137;SDS011;8174;43.550;5.206;2022-12-10T14:33:52;15.43;;;10.17;;
16137;SDS011;8174;43.550;5.206;2022-12-10T14:36:23;17.90;;;10.47;;
16137;SDS011;8174;43.550;5.206;2022-12-10T14:38:52;15.97;;;10.57;;
16137;SDS011;8174;43.550;5.206;2022-12-10T14:41:22;16.07;;;10.20;;
16137;SDS011;8174;43.550;5.206;2022-12-10T14:43:53;18.77;;;10.40;;
16137;SDS011;8174;43.550;5.206;2022-12-10T14:46:23;17.40;;;10.40;;
16137;SDS011;8174;43.550;5.206;2022-12-10T14:48:54;14.50;;;9.77;;
16137;SDS011;8174;43.550;5.206;2022-12-10T14:51:23;16.37;;;10.77;;
16137;SDS011;8174;43.550;5.206;2022-12-10T14:54:00;13.50;;;8.33;;
16137;SDS011;8174;43.550;5.206;2022-12-10T14:56:32;31.33;;;8.83;;
16137;SDS011;8174;43.550;5.206;2022-12-10T14:59:23;15.93;;;9.70;;
16137;SDS011;8174;43.550;5.206;2022-12-10T15:01:56;18.23;;;9.80;;
16137;SDS011;8174;43.550;5.206;2022-12-10T15:04:30;13.30;;;9.43;;
16137;SDS011;8174;43.550;5.206;2022-12-10T15:07:00;14.07;;;9.23;;
16137;SDS011;8174;43.550;5.206;2022-12-10T15:09:33;14.47;;;9.53;;
16137;SDS011;8174;43.550;5.206;2022-12-10T15:12:03;13.13;;;8.70;;
16137;SDS011;8174;43.550;5.206;2022-12-10T15:14:43;12.80;;;8.60;;
16137;SDS011;8174;43.550;5.206;2022-12-10T15:19:54;12.83;;;9.37;;
16137;SDS011;8174;43.550;5.206;2022-12-10T15:22:29;14.47;;;8.67;;
16137;SDS011;8174;43.550;5.206;2022-12-10T15:28:21;16.03;;;9.90;;
16137;SDS011;8174;43.550;5.206;2022-12-10T15:37:05;14.73;;;9.43;;
16137;SDS011;8174;43.550;5.206;2022-12-10T16:40:23;18.17;;;11.50;;
